Time;durP1;ratioP1;P1;durP2;ratioP2;P2;SDS_P1;SDS_P2;PMS_P1;PMS_P2;Temp;Humidity;BMP_temperature;BMP_pressure;BME280_temperature;BME280_humidity;BME280_pressure;Samples;Min_cycle;Max_cycle;Signal;HPM_P1;HPM_P2
2021/07/05 00:00:09;;;;;;;1.10;0.60;;;17.10;99.90;;;;;;5020029;28;20133;-77
2021/07/05 00:02:36;;;;;;;1.67;0.70;;;17.10;99.90;;;;;;5015476;28;20078;-77
2021/07/05 00:05:06;;;;;;;1.70;0.60;;;17.20;99.90;;;;;;5020893;28;20129;-78
2021/07/05 00:07:34;;;;;;;1.65;0.70;;;17.20;99.90;;;;;;5021289;28;20140;-78
2021/07/05 00:10:02;;;;;;;1.75;0.60;;;17.20;99.90;;;;;;5029903;28;20406;-79
2021/07/05 00:12:29;;;;;;;1.50;0.70;;;17.20;99.90;;;;;;5033341;28;20124;-79
2021/07/05 00:14:56;;;;;;;1.73;0.70;;;17.20;99.90;;;;;;5019419;28;20128;-79
2021/07/05 00:17:23;;;;;;;2.30;0.80;;;17.20;99.90;;;;;;5024725;28;20132;-79
2021/07/05 00:19:50;;;;;;;2.03;0.70;;;17.20;99.90;;;;;;5027331;28;20153;-78
2021/07/05 00:22:17;;;;;;;2.00;0.70;;;17.20;99.90;;;;;;5023160;28;20042;-79
2021/07/05 00:24:45;;;;;;;2.85;0.77;;;17.20;99.90;;;;;;5024023;28;20124;-78
2021/07/05 00:27:12;;;;;;;2.05;0.60;;;17.20;99.90;;;;;;5024934;28;21665;-78
2021/07/05 00:29:39;;;;;;;1.70;0.60;;;17.20;99.90;;;;;;5015671;28;20479;-78
2021/07/05 00:32:07;;;;;;;1.20;0.60;;;17.20;99.90;;;;;;5021006;28;20137;-77
2021/07/05 00:34:34;;;;;;;1.88;0.60;;;17.30;99.90;;;;;;5023260;28;20044;-77
2021/07/05 00:37:01;;;;;;;1.77;0.50;;;17.30;99.90;;;;;;5032585;28;20132;-79
2021/07/05 00:39:28;;;;;;;2.55;0.63;;;17.30;99.90;;;;;;5031778;28;20041;-78
2021/07/05 00:41:56;;;;;;;1.40;0.60;;;17.30;99.90;;;;;;5026118;28;20128;-79
2021/07/05 00:44:24;;;;;;;2.20;0.63;;;17.40;99.90;;;;;;5024346;28;20153;-78
2021/07/05 00:46:51;;;;;;;0.65;0.40;;;17.40;99.90;;;;;;5032670;28;20478;-78
2021/07/05 00:49:19;;;;;;;1.15;0.52;;;17.40;99.90;;;;;;5017725;28;20046;-78
2021/07/05 00:51:46;;;;;;;2.92;0.70;;;17.40;99.90;;;;;;5031279;28;20042;-78
2021/07/05 00:54:14;;;;;;;1.52;0.60;;;17.40;99.90;;;;;;5022685;28;20125;-80
2021/07/05 00:56:41;;;;;;;3.15;0.88;;;17.40;99.90;;;;;;5026330;28;20128;-79
2021/07/05 00:59:11;;;;;;;2.13;0.80;;;17.50;99.90;;;;;;5024420;28;20045;-77
2021/07/05 01:01:38;;;;;;;3.08;0.90;;;17.50;99.90;;;;;;5027598;28;20128;-77
2021/07/05 01:04:05;;;;;;;1.80;0.60;;;17.50;99.90;;;;;;5021942;28;20110;-78
2021/07/05 01:06:32;;;;;;;3.20;0.80;;;17.50;99.90;;;;;;5028345;28;20080;-76
2021/07/05 01:08:59;;;;;;;2.20;0.80;;;17.40;99.90;;;;;;5018080;28;20049;-77
2021/07/05 01:11:28;;;;;;;1.90;0.70;;;17.40;99.90;;;;;;5023675;28;20048;-78
2021/07/05 01:13:55;;;;;;;2.55;0.80;;;17.40;99.90;;;;;;5024262;28;20140;-79
2021/07/05 01:16:23;;;;;;;1.65;0.70;;;17.30;99.90;;;;;;5015795;28;20137;-77
2021/07/05 01:18:52;;;;;;;1.25;0.60;;;17.30;99.90;;;;;;5026933;28;20049;-78
2021/07/05 01:21:21;;;;;;;0.93;0.50;;;17.30;99.90;;;;;;5023168;28;20128;-79
2021/07/05 01:23:48;;;;;;;1.42;0.70;;;17.30;99.90;;;;;;5019254;28;20136;-77
2021/07/05 01:26:15;;;;;;;1.45;0.60;;;17.30;99.90;;;;;;5022386;28;20136;-78
2021/07/05 01:28:42;;;;;;;1.48;0.60;;;17.40;99.90;;;;;;5021180;28;20088;-79
2021/07/05 01:31:09;;;;;;;2.42;0.60;;;17.40;99.90;;;;;;5028592;28;20133;-80
2021/07/05 01:33:36;;;;;;;2.53;0.70;;;17.40;99.90;;;;;;5017515;28;20137;-80
2021/07/05 01:36:03;;;;;;;1.77;0.60;;;17.40;99.90;;;;;;5022765;28;20137;-78
2021/07/05 01:38:32;;;;;;;1.73;0.65;;;17.40;99.90;;;;;;5031113;28;20084;-78
2021/07/05 01:41:02;;;;;;;2.10;0.80;;;17.40;99.90;;;;;;5024793;28;20046;-77
2021/07/05 01:43:30;;;;;;;2.05;0.82;;;17.40;99.90;;;;;;5031043;28;20103;-79
2021/07/05 01:45:57;;;;;;;2.00;0.73;;;17.40;99.90;;;;;;5018037;28;20591;-77
2021/07/05 01:48:25;;;;;;;2.72;0.70;;;17.30;99.90;;;;;;5022405;28;20140;-79
2021/07/05 01:50:53;;;;;;;2.00;0.65;;;17.40;99.90;;;;;;5025693;28;20050;-79
2021/07/05 01:53:20;;;;;;;2.22;0.70;;;17.40;99.90;;;;;;5021652;28;20128;-79
2021/07/05 01:55:49;;;;;;;2.60;0.85;;;17.40;99.90;;;;;;5026265;28;20137;-79
2021/07/05 01:58:16;;;;;;;2.08;0.63;;;17.30;99.90;;;;;;5016389;28;20049;-79
2021/07/05 02:00:46;;;;;;;2.00;0.80;;;17.40;99.90;;;;;;5024014;28;20133;-79
2021/07/05 02:03:14;;;;;;;2.70;0.70;;;17.30;99.90;;;;;;5024418;28;20049;-79
2021/07/05 02:05:42;;;;;;;1.85;0.70;;;17.40;99.90;;;;;;5027054;28;20128;-79
2021/07/05 02:08:09;;;;;;;2.90;0.60;;;17.30;99.90;;;;;;5020474;28;20497;-77
2021/07/05 02:10:38;;;;;;;1.88;0.77;;;17.30;99.90;;;;;;5036436;28;20050;-77
2021/07/05 02:13:10;;;;;;;1.60;0.63;;;17.30;99.90;;;;;;5036900;28;20055;-77
2021/07/05 02:15:38;;;;;;;1.45;0.70;;;17.30;99.90;;;;;;5029483;28;20083;-78
2021/07/05 02:18:05;;;;;;;1.40;0.68;;;17.30;99.90;;;;;;5027692;28;20124;-79
2021/07/05 02:20:33;;;;;;;1.25;0.70;;;17.30;99.90;;;;;;5027427;28;20132;-78
2021/07/05 02:23:01;;;;;;;2.08;0.80;;;17.30;99.90;;;;;;5028017;28;20136;-79
2021/07/05 02:25:31;;;;;;;2.20;0.80;;;17.30;99.90;;;;;;5034628;28;20037;-78
2021/07/05 02:28:00;;;;;;;2.05;0.90;;;17.30;99.90;;;;;;5022261;28;20081;-79
2021/07/05 02:30:31;;;;;;;3.55;0.80;;;17.20;99.90;;;;;;5027093;28;20128;-79
2021/07/05 02:32:59;;;;;;;2.67;0.80;;;17.20;99.90;;;;;;5028560;28;20128;-78
2021/07/05 02:35:29;;;;;;;2.67;0.80;;;17.10;99.90;;;;;;5024338;28;20129;-77
2021/07/05 02:37:58;;;;;;;2.42;0.70;;;17.00;99.90;;;;;;5017799;28;20129;-77
2021/07/05 02:40:32;;;;;;;1.95;0.70;;;17.00;99.90;;;;;;5027513;28;20115;-79
2021/07/05 02:43:01;;;;;;;2.15;0.70;;;16.90;99.90;;;;;;5022562;28;20137;-78
2021/07/05 02:45:30;;;;;;;2.30;0.80;;;16.90;99.90;;;;;;5035953;28;20081;-78
2021/07/05 02:48:01;;;;;;;1.92;0.70;;;16.80;99.90;;;;;;5030258;28;20129;-76
2021/07/05 02:50:28;;;;;;;3.03;0.73;;;16.80;99.90;;;;;;5019860;28;20042;-77
2021/07/05 02:52:56;;;;;;;3.05;0.80;;;16.80;99.90;;;;;;5028251;28;20213;-76
2021/07/05 02:55:24;;;;;;;2.15;0.70;;;16.70;99.90;;;;;;5025923;28;20136;-79
2021/07/05 02:57:51;;;;;;;2.72;0.80;;;16.70;99.90;;;;;;5021318;28;20132;-78
2021/07/05 03:00:23;;;;;;;1.90;0.90;;;16.70;99.90;;;;;;5026276;28;20038;-79
2021/07/05 03:02:52;;;;;;;1.60;0.80;;;16.70;99.90;;;;;;5032758;28;20546;-78
2021/07/05 03:05:22;;;;;;;1.50;0.73;;;16.70;99.90;;;;;;5030260;28;20088;-79
2021/07/05 03:07:49;;;;;;;1.85;0.77;;;16.70;99.90;;;;;;5019555;28;20410;-79
2021/07/05 03:10:19;;;;;;;2.72;0.80;;;16.70;99.90;;;;;;5015333;28;20057;-79
2021/07/05 03:12:47;;;;;;;2.78;0.80;;;16.70;99.90;;;;;;5029332;28;20156;-79
2021/07/05 03:15:16;;;;;;;1.65;0.80;;;16.70;99.90;;;;;;5027041;28;20106;-75
2021/07/05 03:17:45;;;;;;;2.53;0.70;;;16.70;99.90;;;;;;5028258;28;20314;-77
2021/07/05 03:20:17;;;;;;;1.63;0.70;;;16.70;99.90;;;;;;5041783;28;20076;-79
2021/07/05 03:22:47;;;;;;;2.50;0.80;;;16.70;99.90;;;;;;5035490;28;20049;-78
2021/07/05 03:25:17;;;;;;;1.98;1.00;;;16.70;99.90;;;;;;5017371;28;20061;-80
2021/07/05 03:27:45;;;;;;;2.25;0.70;;;16.80;99.90;;;;;;5024123;28;20066;-79
2021/07/05 03:30:14;;;;;;;2.20;0.70;;;16.80;99.90;;;;;;5034056;28;20042;-79
2021/07/05 03:32:42;;;;;;;2.15;0.95;;;16.80;99.90;;;;;;5021697;28;20137;-78
2021/07/05 03:35:13;;;;;;;3.42;0.80;;;16.90;99.90;;;;;;5020985;28;20128;-79
2021/07/05 03:37:41;;;;;;;2.28;0.70;;;16.90;99.90;;;;;;5023854;28;20128;-77
2021/07/05 03:40:12;;;;;;;2.50;0.90;;;16.90;99.90;;;;;;5023713;28;20056;-76
2021/07/05 03:42:39;;;;;;;2.25;0.80;;;17.00;99.90;;;;;;5020443;28;20138;-76
2021/07/05 03:45:09;;;;;;;3.67;1.00;;;17.00;99.90;;;;;;5028004;28;20133;-77
2021/07/05 03:47:37;;;;;;;2.15;1.02;;;17.00;99.90;;;;;;5023625;28;20136;-76
2021/07/05 03:50:08;;;;;;;1.73;0.75;;;17.00;99.90;;;;;;5023662;28;20136;-78
2021/07/05 03:52:37;;;;;;;2.08;0.85;;;17.00;99.90;;;;;;5013298;28;20539;-78
2021/07/05 03:55:06;;;;;;;2.20;1.08;;;17.00;99.90;;;;;;5013006;28;20572;-77
2021/07/05 03:57:33;;;;;;;3.63;1.08;;;17.00;99.90;;;;;;5021003;28;20133;-77
2021/07/05 04:00:00;;;;;;;2.15;0.80;;;17.00;99.90;;;;;;5020495;28;20136;-76
2021/07/05 04:02:27;;;;;;;2.05;0.82;;;17.00;99.90;;;;;;5023247;28;20140;-76
2021/07/05 04:04:56;;;;;;;2.17;0.90;;;17.00;99.90;;;;;;5017567;28;20056;-78
2021/07/05 04:07:23;;;;;;;2.28;0.90;;;17.00;99.90;;;;;;5027841;28;20128;-76
2021/07/05 04:09:52;;;;;;;2.90;0.90;;;17.00;99.90;;;;;;5019254;28;20856;-78
2021/07/05 04:12:20;;;;;;;1.88;1.10;;;17.00;99.90;;;;;;5020148;28;20427;-77
2021/07/05 04:14:49;;;;;;;3.47;1.00;;;16.90;99.90;;;;;;5025347;28;20055;-81
2021/07/05 04:17:16;;;;;;;2.40;0.80;;;16.90;99.90;;;;;;5022147;28;20053;-78
2021/07/05 04:19:45;;;;;;;1.65;0.70;;;16.90;99.90;;;;;;5025488;28;20136;-76
2021/07/05 04:22:14;;;;;;;3.42;0.80;;;16.80;99.90;;;;;;5019001;28;20176;-78
2021/07/05 04:24:42;;;;;;;4.47;0.93;;;16.80;99.90;;;;;;5022275;28;20056;-79
2021/07/05 04:27:11;;;;;;;2.30;0.80;;;16.70;99.90;;;;;;5034894;28;20477;-75
2021/07/05 04:29:39;;;;;;;3.30;0.80;;;16.70;99.90;;;;;;5031956;28;20468;-77
2021/07/05 04:32:07;;;;;;;2.88;1.00;;;16.70;99.90;;;;;;5019442;28;20077;-77
2021/07/05 04:34:35;;;;;;;3.47;0.98;;;16.70;99.90;;;;;;5013888;28;20136;-79
2021/07/05 04:37:03;;;;;;;2.53;1.02;;;16.70;99.90;;;;;;5012134;28;20060;-78
2021/07/05 04:39:30;;;;;;;3.30;0.90;;;16.70;99.90;;;;;;5011732;28;20134;-75
2021/07/05 04:41:57;;;;;;;4.50;0.80;;;16.70;99.90;;;;;;5011882;28;20144;-77
2021/07/05 04:44:26;;;;;;;4.28;1.25;;;16.70;99.90;;;;;;5011808;28;20084;-79
2021/07/05 04:46:53;;;;;;;3.80;1.00;;;16.60;99.90;;;;;;5011773;28;20138;-78
2021/07/05 04:49:21;;;;;;;4.57;0.90;;;16.60;99.90;;;;;;5011732;28;20141;-78
2021/07/05 04:51:49;;;;;;;2.80;1.08;;;16.60;99.90;;;;;;5010848;28;20052;-77
2021/07/05 04:54:16;;;;;;;2.92;1.40;;;16.60;99.90;;;;;;5011666;28;20068;-78
2021/07/05 04:56:44;;;;;;;3.45;1.00;;;16.60;99.90;;;;;;5011241;28;20078;-78
2021/07/05 04:59:14;;;;;;;2.28;1.08;;;16.70;99.90;;;;;;5011833;28;20089;-76
2021/07/05 05:01:46;;;;;;;4.13;1.65;;;16.70;99.90;;;;;;5011717;28;20387;-78
2021/07/05 05:04:14;;;;;;;5.55;1.10;;;16.80;99.90;;;;;;5011537;28;20042;-76
2021/07/05 05:06:41;;;;;;;3.50;1.17;;;16.80;99.90;;;;;;5011383;28;20422;-77
2021/07/05 05:09:08;;;;;;;3.20;1.10;;;16.80;99.90;;;;;;5011151;28;20479;-79
2021/07/05 05:11:35;;;;;;;4.00;1.30;;;16.90;99.90;;;;;;5011403;28;20097;-77
2021/07/05 05:14:02;;;;;;;3.53;1.40;;;16.90;99.90;;;;;;5011338;28;20453;-78
2021/07/05 05:16:29;;;;;;;4.72;1.40;;;16.90;99.90;;;;;;5011390;28;20077;-78
2021/07/05 05:18:58;;;;;;;3.70;1.10;;;17.00;99.90;;;;;;5011349;28;20470;-79
2021/07/05 05:21:25;;;;;;;3.28;1.30;;;17.00;99.90;;;;;;5010941;28;20503;-78
2021/07/05 05:23:52;;;;;;;4.07;1.27;;;17.10;99.90;;;;;;5011139;28;20578;-77
2021/07/05 05:26:19;;;;;;;3.70;1.10;;;17.20;99.90;;;;;;5011431;28;20137;-75
2021/07/05 05:28:47;;;;;;;3.15;1.10;;;17.20;99.90;;;;;;5013766;28;20054;-78
2021/07/05 05:31:15;;;;;;;4.13;1.10;;;17.20;99.90;;;;;;5013929;28;20049;-78
2021/07/05 05:33:42;;;;;;;5.38;1.27;;;17.30;99.90;;;;;;5013881;28;20579;-78
2021/07/05 05:36:11;;;;;;;4.25;1.10;;;17.30;99.90;;;;;;5013383;28;20136;-78
2021/07/05 05:38:40;;;;;;;5.40;1.20;;;17.30;99.90;;;;;;5013293;28;20129;-78
2021/07/05 05:41:07;;;;;;;2.95;1.00;;;17.30;99.90;;;;;;5013740;28;20096;-78
2021/07/05 05:43:34;;;;;;;4.10;1.30;;;17.30;99.90;;;;;;5013407;28;20309;-77
2021/07/05 05:46:02;;;;;;;2.97;1.25;;;17.30;99.90;;;;;;5013616;28;20073;-77
2021/07/05 05:48:29;;;;;;;1.95;0.95;;;17.30;99.90;;;;;;5013184;28;20129;-78
2021/07/05 05:50:57;;;;;;;3.55;1.23;;;17.30;99.90;;;;;;5028035;28;20132;-76
2021/07/05 05:53:26;;;;;;;2.53;1.23;;;17.30;99.90;;;;;;5033200;28;20128;-78
2021/07/05 05:55:53;;;;;;;3.40;1.27;;;17.30;99.90;;;;;;5033207;28;20128;-78
2021/07/05 05:58:20;;;;;;;3.45;1.00;;;17.30;99.90;;;;;;5033169;28;20132;-79
2021/07/05 06:00:48;;;;;;;3.47;1.20;;;17.30;99.90;;;;;;5032844;28;20050;-77
2021/07/05 06:03:15;;;;;;;3.97;1.15;;;17.30;99.90;;;;;;5032954;28;20091;-75
2021/07/05 06:05:42;;;;;;;4.80;1.45;;;17.30;99.90;;;;;;5033059;28;20133;-77
2021/07/05 06:08:09;;;;;;;3.78;1.20;;;17.40;99.90;;;;;;5037654;28;20134;-77
2021/07/05 06:10:38;;;;;;;2.95;1.10;;;17.40;99.90;;;;;;5032985;28;20144;-78
2021/07/05 06:13:05;;;;;;;3.55;1.23;;;17.40;99.90;;;;;;5032912;28;20255;-75
2021/07/05 06:15:32;;;;;;;3.97;1.17;;;17.40;99.90;;;;;;5032929;28;20136;-78
2021/07/05 06:17:59;;;;;;;2.50;1.10;;;17.40;99.90;;;;;;5032716;28;20132;-79
2021/07/05 06:20:26;;;;;;;4.75;1.17;;;17.50;99.90;;;;;;5033013;28;20162;-77
2021/07/05 06:22:54;;;;;;;2.17;1.10;;;17.50;99.90;;;;;;5032910;28;20133;-78
2021/07/05 06:25:22;;;;;;;2.38;0.90;;;17.50;99.90;;;;;;5033819;28;20041;-76
2021/07/05 06:27:51;;;;;;;2.78;1.23;;;17.60;99.90;;;;;;5033054;28;20042;-79
2021/07/05 06:30:19;;;;;;;3.85;1.27;;;17.60;99.90;;;;;;5043699;28;20105;-77
2021/07/05 06:32:46;;;;;;;3.03;1.00;;;17.70;99.90;;;;;;5039600;28;20128;-78
2021/07/05 06:35:14;;;;;;;2.83;1.00;;;17.70;99.90;;;;;;5034156;28;20049;-78
2021/07/05 06:37:42;;;;;;;2.53;1.00;;;17.70;99.90;;;;;;5033098;28;20045;-79
2021/07/05 06:40:10;;;;;;;2.70;1.00;;;17.80;99.90;;;;;;5033091;28;20573;-76
2021/07/05 06:42:38;;;;;;;3.72;1.00;;;17.80;99.90;;;;;;5033424;28;20081;-78
2021/07/05 06:45:08;;;;;;;2.47;1.10;;;17.90;99.90;;;;;;5032281;28;20588;-76
2021/07/05 06:47:36;;;;;;;3.10;1.20;;;18.00;99.90;;;;;;5032398;28;20180;-79
2021/07/05 06:50:04;;;;;;;4.00;1.40;;;18.00;99.90;;;;;;5032808;28;20049;-77
2021/07/05 06:52:33;;;;;;;6.25;1.63;;;18.10;99.90;;;;;;5035827;28;20099;-78
2021/07/05 06:55:00;;;;;;;3.00;1.10;;;18.10;99.90;;;;;;5036282;28;20438;-78
2021/07/05 06:57:31;;;;;;;4.47;1.20;;;18.10;99.90;;;;;;5035992;28;20088;-77
2021/07/05 06:59:59;;;;;;;3.78;1.10;;;18.10;99.90;;;;;;5036012;28;20045;-79
2021/07/05 07:02:28;;;;;;;3.67;1.27;;;18.10;99.90;;;;;;5035961;28;20049;-79
2021/07/05 07:04:55;;;;;;;3.70;1.30;;;18.20;99.90;;;;;;5035924;28;20085;-79
2021/07/05 07:07:22;;;;;;;2.67;1.23;;;18.20;99.90;;;;;;5036052;28;20128;-78
2021/07/05 07:09:49;;;;;;;2.65;1.10;;;18.20;99.90;;;;;;5035708;28;20095;-79
2021/07/05 07:12:17;;;;;;;2.53;1.10;;;18.20;99.90;;;;;;5036130;28;20461;-76
2021/07/05 07:14:44;;;;;;;2.50;0.95;;;18.30;99.90;;;;;;5035469;28;20084;-77
2021/07/05 07:17:19;;;;;;;2.88;1.10;;;18.30;99.90;;;;;;5035806;28;20046;-77
2021/07/05 07:19:47;;;;;;;;;;;18.30;99.90;;;;;;5039180;28;20057;-80
2021/07/05 07:22:14;;;;;;;3.30;1.20;;;18.40;99.90;;;;;;5035937;28;19921;-80
2021/07/05 07:24:41;;;;;;;4.18;1.20;;;18.40;99.90;;;;;;5035449;28;20464;-79
2021/07/05 07:27:08;;;;;;;3.13;1.48;;;18.40;99.90;;;;;;5035489;28;20049;-77
2021/07/05 07:29:36;;;;;;;3.28;1.30;;;18.40;99.90;;;;;;5035336;28;20520;-78
2021/07/05 07:32:03;;;;;;;3.13;1.20;;;18.50;99.90;;;;;;5035943;28;20124;-78
2021/07/05 07:34:30;;;;;;;2.97;1.30;;;18.50;99.90;;;;;;5035180;28;20380;-80
2021/07/05 07:37:02;;;;;;;2.20;1.00;;;18.50;99.90;;;;;;5035492;28;20475;-79
2021/07/05 07:39:33;;;;;;;3.38;1.20;;;18.50;99.90;;;;;;5042708;28;20053;-75
2021/07/05 07:42:00;;;;;;;2.80;1.25;;;18.60;99.90;;;;;;5046067;28;20046;-77
2021/07/05 07:44:27;;;;;;;2.95;1.20;;;18.60;99.90;;;;;;5034968;28;20060;-78
2021/07/05 07:46:54;;;;;;;2.10;1.10;;;18.60;99.90;;;;;;5038397;28;20136;-78
2021/07/05 07:49:21;;;;;;;2.95;1.30;;;18.60;99.90;;;;;;5035010;28;20050;-78
2021/07/05 07:51:49;;;;;;;2.08;1.10;;;18.60;99.90;;;;;;5034781;28;20133;-79
2021/07/05 07:54:17;;;;;;;3.38;1.40;;;18.60;99.90;;;;;;5034999;28;20050;-79
2021/07/05 07:56:44;;;;;;;2.50;1.27;;;18.70;99.90;;;;;;5034058;28;20140;-78
2021/07/05 07:59:12;;;;;;;3.20;1.35;;;18.70;99.90;;;;;;5034809;28;20049;-79
2021/07/05 08:01:39;;;;;;;3.72;1.30;;;18.70;99.90;;;;;;5035209;28;20483;-78
2021/07/05 08:04:06;;;;;;;3.00;1.10;;;18.70;99.90;;;;;;5042021;28;20068;-78
2021/07/05 08:06:33;;;;;;;3.15;1.02;;;18.70;99.90;;;;;;5042691;28;20100;-76
2021/07/05 08:09:01;;;;;;;3.05;1.10;;;18.80;99.90;;;;;;5043142;28;20081;-79
2021/07/05 08:11:30;;;;;;;4.00;1.15;;;18.80;99.90;;;;;;5041930;28;20048;-77
2021/07/05 08:13:57;;;;;;;3.05;1.25;;;18.90;99.90;;;;;;5035698;28;20132;-78
2021/07/05 08:16:24;;;;;;;2.28;1.00;;;18.90;99.90;;;;;;5034634;28;20124;-80
2021/07/05 08:18:51;;;;;;;3.60;1.20;;;18.90;99.90;;;;;;5034398;28;20136;-80
2021/07/05 08:21:18;;;;;;;3.53;1.10;;;19.00;99.90;;;;;;5034832;28;20068;-77
2021/07/05 08:23:46;;;;;;;2.33;1.00;;;19.00;99.90;;;;;;5034907;28;20051;-77
2021/07/05 08:26:14;;;;;;;2.50;1.20;;;19.10;99.90;;;;;;5034200;28;20140;-79
2021/07/05 08:28:43;;;;;;;3.13;1.17;;;19.10;99.90;;;;;;5034195;28;20475;-78
2021/07/05 08:31:10;;;;;;;2.42;1.10;;;19.20;99.90;;;;;;5039210;28;20084;-79
2021/07/05 08:33:37;;;;;;;3.10;1.00;;;19.30;99.90;;;;;;5045331;28;20046;-75
2021/07/05 08:36:06;;;;;;;3.42;1.20;;;19.40;99.90;;;;;;5035923;28;20124;-80
2021/07/05 08:38:34;;;;;;;3.60;1.08;;;19.40;99.90;;;;;;5033612;28;20128;-79
2021/07/05 08:41:03;;;;;;;2.20;0.98;;;19.50;99.90;;;;;;5042109;28;20128;-79
2021/07/05 08:43:31;;;;;;;2.75;1.00;;;19.50;99.90;;;;;;5044698;28;20104;-80
2021/07/05 08:46:05;;;;;;;2.20;0.85;;;19.50;99.90;;;;;;5043860;28;20049;-80
2021/07/05 08:48:36;;;;;;;2.80;0.98;;;19.60;99.90;;;;;;5044097;28;20076;-80
2021/07/05 08:51:08;;;;;;;2.25;0.90;;;19.60;99.90;;;;;;5043797;28;20471;-78
2021/07/05 08:53:35;;;;;;;2.20;0.80;;;19.60;99.90;;;;;;5037567;28;20120;-79
2021/07/05 08:56:03;;;;;;;2.40;0.90;;;19.60;99.90;;;;;;5033644;28;20129;-77
2021/07/05 08:58:30;;;;;;;1.98;0.90;;;19.70;99.90;;;;;;5033784;28;20133;-79
2021/07/05 09:00:57;;;;;;;1.83;0.80;;;19.70;99.90;;;;;;5033623;28;20077;-78
2021/07/05 09:03:29;;;;;;;1.63;0.65;;;19.80;99.90;;;;;;5033598;28;20133;-79
2021/07/05 09:06:14;;;;;;;1.83;0.80;;;19.90;99.90;;;;;;5033863;28;20045;-79
2021/07/05 09:08:43;;;;;;;2.30;1.10;;;19.90;99.90;;;;;;5033571;28;20129;-80
2021/07/05 09:11:13;;;;;;;1.73;0.75;;;19.90;99.90;;;;;;5033031;28;20483;-80
2021/07/05 09:13:49;;;;;;;3.28;0.80;;;20.00;99.90;;;;;;5033182;28;20132;-78
2021/07/05 09:16:30;;;;;;;1.90;0.80;;;20.00;99.90;;;;;;5033721;28;20132;-79
2021/07/05 09:18:59;;;;;;;1.52;0.70;;;20.00;99.90;;;;;;5033269;28;20556;-79
2021/07/05 09:21:28;;;;;;;3.30;1.00;;;20.10;99.90;;;;;;5033345;28;20128;-77
2021/07/05 09:24:03;;;;;;;2.35;0.90;;;20.10;99.90;;;;;;5033538;28;20077;-79
2021/07/05 09:26:33;;;;;;;2.03;0.80;;;20.20;99.90;;;;;;5033429;28;20049;-79
2021/07/05 09:29:05;;;;;;;1.30;0.57;;;20.20;98.50;;;;;;5033627;28;20132;-79
2021/07/05 09:31:38;;;;;;;1.25;0.70;;;20.10;97.70;;;;;;5035499;28;20136;-79
2021/07/05 09:34:17;;;;;;;1.35;0.57;;;20.00;97.70;;;;;;5034166;28;20041;-79
2021/07/05 09:36:44;;;;;;;1.27;0.57;;;19.90;97.10;;;;;;5040993;28;20052;-78
2021/07/05 09:39:18;;;;;;;1.13;0.57;;;19.90;97.60;;;;;;5044754;28;20084;-78
2021/07/05 09:41:46;;;;;;;2.20;0.57;;;19.90;97.60;;;;;;5039694;28;20139;-79
2021/07/05 09:44:16;;;;;;;1.50;0.50;;;19.90;97.10;;;;;;5041096;28;20057;-77
2021/07/05 09:46:50;;;;;;;1.65;0.60;;;19.90;97.20;;;;;;5033529;28;20052;-79
2021/07/05 09:49:30;;;;;;;1.38;0.50;;;19.80;97.40;;;;;;5034657;28;20558;-79
2021/07/05 09:52:16;;;;;;;3.58;0.77;;;19.90;97.80;;;;;;5032837;28;20055;-77
2021/07/05 09:54:45;;;;;;;2.28;0.80;;;19.90;98.70;;;;;;5032894;28;20145;-80
2021/07/05 09:57:29;;;;;;;1.23;0.60;;;19.90;98.80;;;;;;5033055;28;20136;-80
2021/07/05 09:59:59;;;;;;;4.55;0.95;;;19.90;99.10;;;;;;5032875;28;20041;-77
2021/07/05 10:02:27;;;;;;;2.45;0.80;;;19.80;98.90;;;;;;5032867;28;20136;-78
2021/07/05 10:08:03;;;;;;;1.17;0.60;;;19.80;99.00;;;;;;5090392;27;20404;-78
2021/07/05 10:10:30;;;;;;;2.13;0.60;;;19.80;98.90;;;;;;5070078;28;20132;-77
2021/07/05 10:12:59;;;;;;;0.90;0.60;;;19.80;99.00;;;;;;5066683;28;20048;-78
2021/07/05 10:15:29;;;;;;;2.92;0.75;;;19.80;99.00;;;;;;5066970;28;20472;-79
2021/07/05 10:17:57;;;;;;;2.00;0.50;;;19.80;98.80;;;;;;5067689;28;20091;-77
2021/07/05 10:20:27;;;;;;;1.83;0.70;;;19.70;98.70;;;;;;5067372;28;20098;-79
2021/07/05 10:22:59;;;;;;;1.60;0.63;;;19.70;98.80;;;;;;5067235;28;20128;-77
2021/07/05 10:25:30;;;;;;;2.70;0.70;;;19.70;99.10;;;;;;5066500;28;20513;-76
2021/07/05 10:27:58;;;;;;;1.83;0.68;;;19.70;99.10;;;;;;5066905;28;20133;-78
2021/07/05 10:30:26;;;;;;;1.58;0.73;;;19.70;99.00;;;;;;5067144;28;20059;-79
2021/07/05 10:32:54;;;;;;;2.10;0.68;;;19.70;99.00;;;;;;5067036;28;20067;-77
2021/07/05 10:35:25;;;;;;;2.17;0.60;;;19.60;98.90;;;;;;5066931;28;20132;-78
2021/07/05 10:38:01;;;;;;;1.85;0.50;;;19.60;99.30;;;;;;5066228;28;20044;-80
2021/07/05 10:40:38;;;;;;;1.10;0.47;;;19.60;99.10;;;;;;5066820;28;20140;-78
2021/07/05 10:43:06;;;;;;;2.75;0.68;;;19.60;99.10;;;;;;5066903;28;20153;-78
2021/07/05 10:45:42;;;;;;;1.58;0.50;;;19.60;99.10;;;;;;5066726;28;20102;-78
2021/07/05 10:48:11;;;;;;;1.23;0.50;;;19.60;98.80;;;;;;5066716;28;20080;-79
2021/07/05 10:50:57;;;;;;;1.55;0.55;;;19.70;98.80;;;;;;5066209;28;20135;-80
2021/07/05 10:53:57;;;;;;;1.10;0.50;;;19.70;99.00;;;;;;5066000;28;20053;-78
2021/07/05 10:56:41;;;;;;;1.50;0.50;;;19.70;99.10;;;;;;5066566;28;20049;-79
2021/07/05 10:59:34;;;;;;;;;;;19.80;99.00;;;;;;5066139;28;20160;-79
2021/07/05 11:02:02;;;;;;;1.80;0.70;;;19.90;99.10;;;;;;5066592;28;19925;-79
2021/07/05 11:04:31;;;;;;;2.90;0.50;;;19.90;99.00;;;;;;5066088;28;20056;-79
2021/07/05 11:06:59;;;;;;;1.23;0.50;;;20.00;99.10;;;;;;5066210;28;20160;-79
2021/07/05 11:09:28;;;;;;;1.92;0.70;;;20.00;99.20;;;;;;5066224;28;20387;-80
2021/07/05 11:11:58;;;;;;;1.23;0.52;;;20.10;99.20;;;;;;5066261;28;20047;-80
2021/07/05 11:14:30;;;;;;;1.83;0.77;;;20.10;99.20;;;;;;5065716;28;20075;-79
2021/07/05 11:17:10;;;;;;;1.88;0.80;;;20.10;99.30;;;;;;5064959;28;20060;-80
2021/07/05 11:19:47;;;;;;;2.03;0.80;;;20.20;99.30;;;;;;5052741;28;20299;-79
2021/07/05 11:22:34;;;;;;;1.75;0.60;;;20.20;99.30;;;;;;5052952;28;20053;-79
2021/07/05 11:25:11;;;;;;;1.50;0.70;;;20.10;99.40;;;;;;5052265;28;20116;-80
2021/07/05 11:27:59;;;;;;;1.50;0.65;;;20.10;99.30;;;;;;5052594;28;20172;-80
2021/07/05 11:30:39;;;;;;;1.77;0.60;;;20.10;99.30;;;;;;5052352;28;20098;-80
2021/07/05 11:33:28;;;;;;;2.00;0.80;;;20.10;99.20;;;;;;5052761;28;20463;-78
2021/07/05 11:36:02;;;;;;;2.33;0.60;;;20.00;99.20;;;;;;5051566;28;20044;-79
2021/07/05 11:38:38;;;;;;;1.65;0.65;;;20.00;99.30;;;;;;5051836;28;20086;-79
2021/07/05 11:41:28;;;;;;;1.70;0.60;;;20.00;99.40;;;;;;5052378;28;20045;-81
2021/07/05 11:44:08;;;;;;;1.80;0.80;;;20.00;99.90;;;;;;5052018;28;20055;-80
2021/07/05 11:46:54;;;;;;;2.25;0.65;;;20.00;99.90;;;;;;5052518;28;20057;-80
2021/07/05 11:49:30;;;;;;;1.70;0.70;;;20.10;99.90;;;;;;5052250;28;20124;-79
2021/07/05 11:52:00;;;;;;;1.50;0.70;;;20.20;99.90;;;;;;5052081;28;20478;-79
2021/07/05 11:54:32;;;;;;;2.45;0.80;;;20.20;99.90;;;;;;5052594;28;20459;-81
2021/07/05 11:57:04;;;;;;;2.80;0.75;;;20.30;99.90;;;;;;5051466;28;20049;-79
2021/07/05 11:59:34;;;;;;;1.33;0.60;;;20.60;99.90;;;;;;5051981;28;20049;-79
2021/07/05 12:02:05;;;;;;;1.95;0.68;;;20.80;99.90;;;;;;5051386;28;20739;-81
2021/07/05 12:04:35;;;;;;;1.60;0.60;;;21.10;99.90;;;;;;5051554;28;20124;-85
2021/07/05 12:07:06;;;;;;;1.92;0.70;;;21.40;99.80;;;;;;5051662;28;20048;-80
2021/07/05 12:09:34;;;;;;;2.10;0.80;;;21.60;99.40;;;;;;5051563;28;20053;-81
2021/07/05 12:12:12;;;;;;;1.33;0.60;;;21.70;99.00;;;;;;5054876;28;20132;-80
2021/07/05 12:14:40;;;;;;;1.50;0.60;;;21.90;98.80;;;;;;5056885;28;20056;-81
2021/07/05 12:17:09;;;;;;;1.40;0.60;;;22.00;98.50;;;;;;5053191;28;20064;-78
2021/07/05 12:19:40;;;;;;;1.35;0.60;;;22.10;98.20;;;;;;5054617;28;20064;-82
2021/07/05 12:22:09;;;;;;;1.92;0.75;;;22.10;98.00;;;;;;5053814;28;20122;-79
2021/07/05 12:24:40;;;;;;;3.80;0.80;;;22.20;98.00;;;;;;5051802;28;20053;-78
2021/07/05 12:27:12;;;;;;;1.20;0.70;;;22.20;98.00;;;;;;5052246;28;20475;-80
2021/07/05 12:29:44;;;;;;;1.73;0.80;;;22.20;97.80;;;;;;5051047;28;20049;-80
2021/07/05 12:32:14;;;;;;;1.80;0.85;;;22.10;97.80;;;;;;5050739;28;20060;-80
2021/07/05 12:34:45;;;;;;;1.48;0.70;;;22.10;97.60;;;;;;5050713;28;20057;-83
2021/07/05 12:37:20;;;;;;;1.50;0.70;;;22.10;97.60;;;;;;5051280;28;20107;-83
2021/07/05 12:39:54;;;;;;;1.48;0.65;;;22.10;97.60;;;;;;5051898;28;20391;-81
2021/07/05 12:42:31;;;;;;;1.90;0.80;;;22.00;97.60;;;;;;5051997;28;20049;-80
2021/07/05 12:45:00;;;;;;;1.58;0.70;;;22.10;97.70;;;;;;5051703;28;20128;-81
2021/07/05 12:47:27;;;;;;;1.50;0.80;;;22.00;97.70;;;;;;5051177;28;20134;-81
2021/07/05 12:49:56;;;;;;;1.58;0.73;;;22.00;97.70;;;;;;5050821;28;20128;-81
2021/07/05 12:52:23;;;;;;;2.33;0.70;;;22.10;97.70;;;;;;5050518;28;20072;-80
2021/07/05 12:55:18;;;;;;;1.85;0.85;;;22.00;97.70;;;;;;5051107;28;20048;-79
2021/07/05 12:57:54;;;;;;;3.47;1.65;;;22.10;98.00;;;;;;5052045;28;20135;-80
2021/07/05 13:00:24;;;;;;;3.22;1.45;;;22.10;98.20;;;;;;5051197;28;20064;-80
2021/07/05 13:02:53;;;;;;;5.00;1.08;;;22.00;98.20;;;;;;5049912;28;20136;-82